createdAt,value
2024-01-15T00:02:09.900Z,13.63
2024-01-15T00:04:39.431Z,13.63
2024-01-15T00:07:07.179Z,13.61
2024-01-15T00:09:35.089Z,13.59
2024-01-15T00:12:03.341Z,13.55
2024-01-15T00:14:31.037Z,13.53
2024-01-15T00:16:59.957Z,13.52
2024-01-15T00:19:28.839Z,13.51
2024-01-15T00:21:56.525Z,13.49
2024-01-15T00:24:24.147Z,13.49
2024-01-15T00:26:51.778Z,13.48
2024-01-15T00:29:19.376Z,13.46
2024-01-15T00:31:47.001Z,13.45
2024-01-15T00:34:16.155Z,13.44
2024-01-15T00:36:44.016Z,13.43
2024-01-15T00:39:12.033Z,13.40
2024-01-15T00:41:39.813Z,13.38
2024-01-15T00:44:08.122Z,13.41
2024-01-15T00:46:42.942Z,13.38
2024-01-15T00:49:10.610Z,13.37
2024-01-15T00:51:39.578Z,13.39
2024-01-15T00:54:07.531Z,13.39
2024-01-15T00:56:35.572Z,13.41
2024-01-15T00:59:03.187Z,13.40
2024-01-15T01:01:31.078Z,13.40
2024-01-15T01:03:58.922Z,13.36
2024-01-15T01:06:26.965Z,13.36
2024-01-15T01:08:55.923Z,13.36
2024-01-15T01:11:23.586Z,13.35
2024-01-15T01:13:51.192Z,13.33
2024-01-15T01:16:18.993Z,13.34
2024-01-15T01:18:46.749Z,13.30
2024-01-15T01:21:14.479Z,13.33
2024-01-15T01:23:42.732Z,13.31
2024-01-15T01:26:11.659Z,13.29
2024-01-15T01:28:39.238Z,13.27
2024-01-15T01:31:07.025Z,13.27
2024-01-15T01:33:34.756Z,13.24
2024-01-15T01:36:02.430Z,13.22
2024-01-15T01:38:30.047Z,13.22
2024-01-15T01:40:57.838Z,13.19
2024-01-15T01:43:27.007Z,13.19
2024-01-15T01:45:56.872Z,13.19
2024-01-15T01:48:26.227Z,13.16
2024-01-15T01:50:54.892Z,13.15
2024-01-15T01:53:23.287Z,13.14
2024-01-15T01:55:51.959Z,13.12
2024-01-15T01:58:21.049Z,13.08
2024-01-15T02:00:50.758Z,13.07
2024-01-15T02:03:18.742Z,13.05
2024-01-15T02:05:47.691Z,13.05
2024-01-15T02:08:15.554Z,13.05
2024-01-15T02:10:43.148Z,13.03
2024-01-15T02:13:10.776Z,12.98
2024-01-15T02:15:38.405Z,12.97
2024-01-15T02:18:09.192Z,12.95
2024-01-15T02:20:37.590Z,12.93
2024-01-15T02:23:14.003Z,12.91
2024-01-15T02:25:42.783Z,12.90
2024-01-15T02:28:11.884Z,12.89
2024-01-15T02:30:41.196Z,12.87
2024-01-15T02:33:09.281Z,12.86
2024-01-15T02:35:38.072Z,12.86
2024-01-15T02:38:06.143Z,12.82
2024-01-15T02:40:36.303Z,12.82
2024-01-15T02:43:04.159Z,12.81
2024-01-15T02:45:32.170Z,12.77
2024-01-15T02:47:59.927Z,12.77
2024-01-15T02:50:27.544Z,12.74
2024-01-15T02:52:55.174Z,12.74
2024-01-15T02:55:22.917Z,12.70
2024-01-15T02:57:51.871Z,12.69
2024-01-15T03:00:19.735Z,12.68
2024-01-15T03:02:48.911Z,12.69
2024-01-15T03:05:17.240Z,12.70
2024-01-15T03:07:45.546Z,12.72
2024-01-15T03:10:13.193Z,12.72
2024-01-15T03:12:40.816Z,12.72
2024-01-15T03:15:09.914Z,12.74
2024-01-15T03:17:37.575Z,12.74
2024-01-15T03:20:05.925Z,12.74
2024-01-15T03:22:33.627Z,12.76
2024-01-15T03:25:01.290Z,12.72
2024-01-15T03:27:29.192Z,12.76
2024-01-15T03:29:56.792Z,12.76
2024-01-15T03:32:25.707Z,12.72
2024-01-15T03:34:53.624Z,12.69
2024-01-15T03:37:21.558Z,12.73
2024-01-15T03:39:49.294Z,12.72
2024-01-15T03:42:17.178Z,12.69
2024-01-15T03:44:44.873Z,12.73
2024-01-15T03:47:12.452Z,12.71
2024-01-15T03:49:41.531Z,12.68
2024-01-15T03:52:09.171Z,12.70
2024-01-15T03:54:36.809Z,12.68
2024-01-15T03:57:04.672Z,12.63
2024-01-15T03:59:32.246Z,12.63
2024-01-15T04:01:59.848Z,12.65
2024-01-15T04:04:27.605Z,12.65
2024-01-15T04:06:56.671Z,12.62
2024-01-15T04:09:24.318Z,12.60
2024-01-15T04:11:51.932Z,12.60
2024-01-15T04:14:19.504Z,12.60
2024-01-15T04:16:47.065Z,12.59
2024-01-15T04:19:14.780Z,12.59
2024-01-15T04:21:43.164Z,12.58
2024-01-15T04:24:13.267Z,12.61
2024-01-15T04:26:40.925Z,12.62
2024-01-15T04:29:08.506Z,12.64
2024-01-15T04:31:36.267Z,12.62
2024-01-15T04:34:04.098Z,12.59
2024-01-15T04:36:31.780Z,12.56
2024-01-15T04:38:59.348Z,12.54
2024-01-15T04:41:28.265Z,12.52
2024-01-15T04:43:55.820Z,12.53
2024-01-15T04:46:23.423Z,12.51
2024-01-15T04:48:51.108Z,12.48
2024-01-15T04:51:18.764Z,12.47
2024-01-15T04:53:46.484Z,12.45
2024-01-15T04:56:14.052Z,12.43
2024-01-15T04:58:43.394Z,12.44
2024-01-15T05:01:11.583Z,12.41
2024-01-15T05:03:39.476Z,12.39
2024-01-15T05:06:07.584Z,12.37
2024-01-15T05:08:35.192Z,12.35
2024-01-15T05:11:03.132Z,12.36
2024-01-15T05:13:30.736Z,12.36
2024-01-15T05:15:59.749Z,12.33
2024-01-15T05:18:27.545Z,12.35
2024-01-15T05:20:55.612Z,12.38
2024-01-15T05:23:23.271Z,12.37
2024-01-15T05:25:51.207Z,12.36
2024-01-15T05:28:19.228Z,12.38
2024-01-15T05:30:46.920Z,12.42
2024-01-15T05:33:16.090Z,12.50
2024-01-15T05:35:44.022Z,12.56
2024-01-15T05:38:11.625Z,12.54
2024-01-15T05:40:39.236Z,12.62
2024-01-15T05:43:06.839Z,12.63
2024-01-15T05:45:36.881Z,12.63
2024-01-15T05:48:05.081Z,12.62
2024-01-15T05:50:34.165Z,12.62
2024-01-15T05:53:01.748Z,12.64
2024-01-15T05:55:29.297Z,12.72
2024-01-15T05:57:57.021Z,12.80
2024-01-15T06:00:24.664Z,12.82
2024-01-15T06:02:52.320Z,12.84
2024-01-15T06:05:20.024Z,12.92
2024-01-15T06:07:49.017Z,12.93
2024-01-15T06:10:16.763Z,12.99
2024-01-15T06:12:45.924Z,13.06
2024-01-15T06:15:14.231Z,13.08
2024-01-15T06:17:41.903Z,13.11
2024-01-15T06:20:11.117Z,13.15
2024-01-15T06:22:40.216Z,13.19
2024-01-15T06:25:10.420Z,13.28
2024-01-15T06:27:38.053Z,13.25
2024-01-15T06:30:07.799Z,13.27
2024-01-15T06:32:35.518Z,13.30
2024-01-15T06:35:03.242Z,13.34
2024-01-15T06:37:30.815Z,13.34
2024-01-15T06:39:58.544Z,13.34
2024-01-15T06:42:27.728Z,13.36
2024-01-15T06:44:55.368Z,13.40
2024-01-15T06:47:22.951Z,13.33
2024-01-15T06:49:51.733Z,13.41
2024-01-15T06:52:19.651Z,13.38
2024-01-15T06:54:47.323Z,13.41
2024-01-15T06:57:15.014Z,13.39
2024-01-15T06:59:43.981Z,13.34
2024-01-15T07:02:11.623Z,13.33
2024-01-15T07:04:42.773Z,13.38
2024-01-15T07:07:11.306Z,13.34
2024-01-15T07:09:39.038Z,13.32
2024-01-15T07:12:07.057Z,13.27
2024-01-15T07:14:34.627Z,13.27
2024-01-15T07:17:03.667Z,13.30
2024-01-15T07:19:31.348Z,13.30
2024-01-15T07:21:59.163Z,13.30
2024-01-15T07:24:26.882Z,13.35
2024-01-15T07:26:54.494Z,13.29
2024-01-15T07:29:22.053Z,13.24
2024-01-15T07:31:51.469Z,13.27
2024-01-15T07:34:20.654Z,13.23
2024-01-15T07:36:48.492Z,13.20
2024-01-15T07:39:16.212Z,13.17
2024-01-15T07:41:43.781Z,13.14
2024-01-15T07:44:11.369Z,13.13
2024-01-15T07:46:40.215Z,13.10
2024-01-15T07:49:07.888Z,13.07
2024-01-15T07:51:36.965Z,13.07
2024-01-15T07:54:04.784Z,13.07
2024-01-15T07:56:32.864Z,13.06
2024-01-15T07:59:00.571Z,13.06
2024-01-15T08:01:28.317Z,13.07
2024-01-15T08:03:56.488Z,13.04
2024-01-15T08:06:24.399Z,13.00
2024-01-15T08:08:53.358Z,12.99
2024-01-15T08:11:20.932Z,12.97
2024-01-15T08:13:48.489Z,12.97
2024-01-15T08:16:16.207Z,13.01
2024-01-15T08:18:45.248Z,12.98
2024-01-15T08:21:13.083Z,12.96
2024-01-15T08:23:40.679Z,12.98
2024-01-15T08:26:09.914Z,12.98
2024-01-15T08:28:39.511Z,12.97
2024-01-15T08:31:07.470Z,12.97
2024-01-15T08:33:35.234Z,12.98
2024-01-15T08:36:03.018Z,12.98
2024-01-15T08:38:30.588Z,13.02
2024-01-15T08:41:00.029Z,12.97
2024-01-15T08:43:28.990Z,12.96
2024-01-15T08:45:56.606Z,12.94
2024-01-15T08:48:24.284Z,12.93
2024-01-15T08:50:53.118Z,12.93
2024-01-15T08:53:20.962Z,12.92
2024-01-15T08:55:48.718Z,12.91
2024-01-15T08:58:16.391Z,12.93
2024-01-15T09:00:45.423Z,12.91
2024-01-15T09:03:13.238Z,12.92
2024-01-15T09:05:41.922Z,12.96
2024-01-15T09:08:09.528Z,12.96
2024-01-15T09:10:37.166Z,12.93
2024-01-15T09:13:05.767Z,12.91
2024-01-15T09:15:33.492Z,12.93
2024-01-15T09:18:06.145Z,12.89
2024-01-15T09:20:35.574Z,12.89
2024-01-15T09:23:03.637Z,12.91
2024-01-15T09:25:31.322Z,12.89
2024-01-15T09:27:59.181Z,12.87
2024-01-15T09:30:26.936Z,12.86
2024-01-15T09:32:54.732Z,12.83
2024-01-15T09:35:25.295Z,12.82
2024-01-15T09:37:53.165Z,12.80
2024-01-15T09:40:23.090Z,12.80
2024-01-15T09:42:52.176Z,12.80
2024-01-15T09:45:20.503Z,12.77
2024-01-15T09:47:48.694Z,12.77
2024-01-15T09:50:17.229Z,12.76
2024-01-15T09:52:46.935Z,12.76
2024-01-15T09:55:16.244Z,12.75
2024-01-15T09:57:45.911Z,12.78
2024-01-15T10:00:14.860Z,12.76
2024-01-15T10:02:42.490Z,12.74
2024-01-15T10:05:10.370Z,12.72
2024-01-15T10:07:39.698Z,12.75
2024-01-15T10:10:09.754Z,12.76
2024-01-15T10:12:38.244Z,12.72
2024-01-15T10:15:06.748Z,12.73
2024-01-15T10:17:34.416Z,12.71
2024-01-15T10:20:02.719Z,12.71
2024-01-15T10:22:30.481Z,12.78
2024-01-15T10:24:58.637Z,12.83
2024-01-15T10:27:27.612Z,12.91
2024-01-15T10:29:55.250Z,12.95
2024-01-15T10:32:25.019Z,12.99
2024-01-15T10:34:55.019Z,13.01
2024-01-15T10:37:24.487Z,13.02
2024-01-15T10:39:54.334Z,13.11
2024-01-15T10:42:22.052Z,13.10
2024-01-15T10:44:51.110Z,13.08
2024-01-15T10:47:19.273Z,13.12
2024-01-15T10:49:47.991Z,13.11
2024-01-15T10:52:16.633Z,13.14
2024-01-15T10:54:46.037Z,13.09
2024-01-15T10:57:16.743Z,13.05
2024-01-15T10:59:44.337Z,13.06
2024-01-15T11:02:15.142Z,13.13
2024-01-15T11:04:42.914Z,13.13
2024-01-15T11:07:12.970Z,13.07
2024-01-15T11:09:40.672Z,13.00
2024-01-15T11:12:10.263Z,12.95
2024-01-15T11:14:41.843Z,12.94
2024-01-15T11:17:10.646Z,12.92
2024-01-15T11:19:41.861Z,12.89
2024-01-15T11:22:10.812Z,12.86
2024-01-15T11:24:40.369Z,12.92
2024-01-15T11:27:09.939Z,12.87
2024-01-15T11:29:37.650Z,12.91
2024-01-15T11:32:09.088Z,12.93
2024-01-15T11:35:02.940Z,12.89
2024-01-15T11:37:51.659Z,12.94
2024-01-15T11:40:20.841Z,12.90
2024-01-15T11:42:49.455Z,12.88
2024-01-15T11:45:20.591Z,12.91
2024-01-15T11:48:10.982Z,12.88
2024-01-15T11:50:42.212Z,12.89
2024-01-15T11:53:19.867Z,12.89
2024-01-15T11:55:49.675Z,12.89
2024-01-15T11:58:18.197Z,12.91
2024-01-15T12:00:47.124Z,12.93
2024-01-15T12:03:14.029Z,12.97
2024-01-15T12:05:43.906Z,12.96
2024-01-15T12:08:12.630Z,12.92
2024-01-15T12:10:42.003Z,12.98
2024-01-15T12:13:13.190Z,12.93
2024-01-15T12:15:42.327Z,12.94
2024-01-15T12:18:11.545Z,12.97
2024-01-15T12:20:39.533Z,12.97
2024-01-15T12:23:09.216Z,13.01
2024-01-15T12:25:38.834Z,13.05
2024-01-15T12:28:07.752Z,13.07
2024-01-15T12:30:37.129Z,13.14
2024-01-15T12:33:06.023Z,13.15
2024-01-15T12:35:35.792Z,13.12
2024-01-15T12:38:04.776Z,13.07
2024-01-15T12:40:35.953Z,13.06
2024-01-15T12:43:04.507Z,13.02
2024-01-15T12:45:32.777Z,12.99
2024-01-15T12:48:01.340Z,12.98
2024-01-15T12:50:29.069Z,12.96
2024-01-15T12:52:56.913Z,12.93
2024-01-15T12:55:24.595Z,12.89
2024-01-15T12:57:55.670Z,12.86
2024-01-15T13:00:23.752Z,12.88
2024-01-15T13:02:51.819Z,12.89
2024-01-15T13:05:21.630Z,12.86
2024-01-15T13:07:49.483Z,12.87
2024-01-15T13:10:17.301Z,12.86
2024-01-15T13:12:45.006Z,12.86
2024-01-15T13:15:15.301Z,12.88
2024-01-15T13:17:44.338Z,12.90
2024-01-15T13:20:13.330Z,12.84
2024-01-15T13:22:41.660Z,12.87
2024-01-15T13:25:10.332Z,12.86
2024-01-15T13:27:39.341Z,12.82
2024-01-15T13:30:09.765Z,12.80
2024-01-15T13:32:39.060Z,12.81
2024-01-15T13:35:10.594Z,12.80
2024-01-15T13:37:39.053Z,12.79
2024-01-15T13:40:08.772Z,12.79
2024-01-15T13:42:39.060Z,12.75
2024-01-15T13:45:08.515Z,12.74
2024-01-15T13:47:36.141Z,12.73
2024-01-15T13:50:05.603Z,12.71
2024-01-15T13:52:33.249Z,12.71
2024-01-15T13:55:00.975Z,12.68
2024-01-15T13:57:28.622Z,12.67
2024-01-15T13:59:56.284Z,12.67
2024-01-15T14:02:25.082Z,12.65
2024-01-15T14:04:53.445Z,12.63
2024-01-15T14:07:22.796Z,12.63
2024-01-15T14:09:50.572Z,12.64
2024-01-15T14:12:18.269Z,12.68
2024-01-15T14:14:45.886Z,12.70
2024-01-15T14:17:13.465Z,12.75
2024-01-15T14:19:41.370Z,12.82
2024-01-15T14:22:09.063Z,12.81
2024-01-15T14:24:38.716Z,12.91
2024-01-15T14:27:08.165Z,12.96
2024-01-15T14:29:36.760Z,12.98
2024-01-15T14:32:04.971Z,13.03
2024-01-15T14:34:33.063Z,13.05
2024-01-15T14:37:00.838Z,13.09
2024-01-15T14:39:28.514Z,13.24
2024-01-15T14:41:57.922Z,13.36
2024-01-15T14:44:25.556Z,13.56
2024-01-15T14:46:53.158Z,13.64
2024-01-15T14:49:20.950Z,13.74
2024-01-15T14:51:50.254Z,13.82
2024-01-15T14:54:17.919Z,13.86
2024-01-15T14:56:45.565Z,13.97
2024-01-15T14:59:15.168Z,14.03
2024-01-15T15:01:43.416Z,14.18
2024-01-15T15:04:11.697Z,14.23
2024-01-15T15:06:39.820Z,14.27
2024-01-15T15:09:10.772Z,14.30
2024-01-15T15:11:38.703Z,14.30
2024-01-15T15:14:06.318Z,14.37
2024-01-15T15:16:35.303Z,14.46
2024-01-15T15:19:03.172Z,14.50
2024-01-15T15:21:30.909Z,14.55
2024-01-15T15:23:58.556Z,14.60
2024-01-15T15:26:26.261Z,14.58
2024-01-15T15:28:53.835Z,14.64
2024-01-15T15:31:21.452Z,14.69
2024-01-15T15:33:50.592Z,14.73
2024-01-15T15:36:20.218Z,14.80
2024-01-15T15:38:48.121Z,14.84
2024-01-15T15:41:15.764Z,14.89
2024-01-15T15:43:43.459Z,14.91
2024-01-15T15:46:11.051Z,14.88
2024-01-15T15:48:38.823Z,14.88
2024-01-15T15:51:08.299Z,14.93
2024-01-15T15:53:35.928Z,14.93
2024-01-15T15:56:03.698Z,14.93
2024-01-15T15:58:31.323Z,14.94
2024-01-15T16:00:59.068Z,14.93
2024-01-15T16:03:26.765Z,14.94
2024-01-15T16:05:54.435Z,14.94
2024-01-15T16:08:23.377Z,15.02
2024-01-15T16:10:52.589Z,14.99
2024-01-15T16:13:20.913Z,14.99
2024-01-15T16:15:49.030Z,14.98
2024-01-15T16:23:20.144Z,14.91
2024-01-15T16:23:34.834Z,14.89
2024-01-15T16:24:12.522Z,14.96
2024-01-15T16:26:43.502Z,14.94
2024-01-15T16:29:11.437Z,14.91
2024-01-15T16:31:39.726Z,14.90
2024-01-15T16:34:09.844Z,14.91
2024-01-15T16:36:39.682Z,14.90
2024-01-15T16:39:08.794Z,14.86
2024-01-15T16:41:36.520Z,14.82
2024-01-15T16:44:04.844Z,14.86
2024-01-15T16:46:32.431Z,14.85
2024-01-15T16:49:02.900Z,14.86
2024-01-15T16:51:31.151Z,14.87
2024-01-15T16:53:59.468Z,14.85
2024-01-15T16:56:28.507Z,14.87
2024-01-15T16:58:57.503Z,14.87
2024-01-15T17:01:25.212Z,14.95
2024-01-15T17:03:53.414Z,14.91
2024-01-15T17:06:21.347Z,14.93
2024-01-15T17:08:48.950Z,14.94
2024-01-15T17:11:16.573Z,14.95
2024-01-15T17:13:45.503Z,15.00
2024-01-15T17:16:13.068Z,15.05
2024-01-15T17:18:40.665Z,15.03
2024-01-15T17:21:08.358Z,15.10
2024-01-15T17:23:36.182Z,15.09
2024-01-15T17:26:04.447Z,15.11
2024-01-15T17:28:32.099Z,15.08
2024-01-15T17:31:01.045Z,15.09
2024-01-15T17:33:28.784Z,15.17
2024-01-15T17:35:58.206Z,15.17
2024-01-15T17:38:26.208Z,15.15
2024-01-15T17:40:53.990Z,15.19
2024-01-15T17:43:21.840Z,15.22
2024-01-15T17:45:49.649Z,15.22
2024-01-15T17:48:18.982Z,15.27
2024-01-15T17:50:47.089Z,15.32
2024-01-15T17:53:14.990Z,15.35
2024-01-15T17:55:43.357Z,15.35
2024-01-15T17:58:10.977Z,15.30
2024-01-15T18:00:38.573Z,15.32
2024-01-15T18:03:06.558Z,15.36
2024-01-15T18:05:35.835Z,15.33
2024-01-15T18:08:03.908Z,15.32
2024-01-15T18:10:31.535Z,15.33
2024-01-15T18:12:59.476Z,15.32
2024-01-15T18:15:27.059Z,15.31
2024-01-15T18:17:55.190Z,15.34
2024-01-15T18:20:23.790Z,15.32
2024-01-15T18:22:54.572Z,15.27
2024-01-15T18:25:23.019Z,15.27
2024-01-15T18:27:50.602Z,15.26
2024-01-15T18:30:18.386Z,15.26
2024-01-15T18:32:46.082Z,15.24
2024-01-15T18:35:13.813Z,15.30
2024-01-15T18:37:41.424Z,15.27
2024-01-15T18:40:11.495Z,15.18
2024-01-15T18:42:39.193Z,15.17
2024-01-15T18:45:08.636Z,15.20
2024-01-15T18:47:36.365Z,15.18
2024-01-15T18:50:04.564Z,15.16
2024-01-15T18:52:32.859Z,15.11
2024-01-15T18:55:00.493Z,15.12
2024-01-15T18:57:29.429Z,15.10
2024-01-15T18:59:57.024Z,15.06
2024-01-15T19:02:24.576Z,15.07
2024-01-15T19:04:52.338Z,15.02
2024-01-15T19:07:19.982Z,15.05
2024-01-15T19:09:47.604Z,15.04
2024-01-15T19:12:15.258Z,15.01
2024-01-15T19:14:44.254Z,14.98
2024-01-15T19:17:11.881Z,15.03
2024-01-15T19:19:39.682Z,15.04
2024-01-15T19:22:07.351Z,15.08
2024-01-15T19:24:34.939Z,15.14
2024-01-15T19:27:02.552Z,15.08
2024-01-15T19:29:30.248Z,15.11
2024-01-15T19:31:59.522Z,15.11
2024-01-15T19:34:27.417Z,15.12
2024-01-15T19:36:55.771Z,15.10
2024-01-15T19:39:25.383Z,15.08
2024-01-15T19:41:53.534Z,15.01
2024-01-15T19:44:21.133Z,14.99
2024-01-15T19:46:48.726Z,15.05
2024-01-15T19:49:18.218Z,15.01
2024-01-15T19:51:47.550Z,14.98
2024-01-15T19:54:15.236Z,14.96
2024-01-15T19:56:42.879Z,14.96
2024-01-15T19:59:10.651Z,14.94
2024-01-15T20:01:38.264Z,14.93
2024-01-15T20:04:06.188Z,14.92
2024-01-15T20:06:35.725Z,14.90
2024-01-15T20:09:03.355Z,14.90
2024-01-15T20:11:30.974Z,14.84
2024-01-15T20:13:58.599Z,14.82
2024-01-15T20:16:27.066Z,14.86
2024-01-15T20:18:54.721Z,14.93
2024-01-15T20:21:22.420Z,15.00
2024-01-15T20:23:58.488Z,15.02
2024-01-15T20:26:29.231Z,15.07
2024-01-15T20:28:56.851Z,15.11
2024-01-15T20:31:24.435Z,15.14
2024-01-15T20:33:52.263Z,15.13
2024-01-15T20:36:19.982Z,15.24
2024-01-15T20:38:47.921Z,15.17
2024-01-15T20:41:18.024Z,15.20
2024-01-15T20:43:45.974Z,15.20
2024-01-15T20:46:13.581Z,15.17
2024-01-15T20:48:41.365Z,15.23
2024-01-15T20:51:10.929Z,15.21
2024-01-15T20:53:38.631Z,15.20
2024-01-15T20:56:06.671Z,15.23
2024-01-15T20:58:35.627Z,15.23
2024-01-15T21:01:05.759Z,15.22
2024-01-15T21:03:33.464Z,15.25
2024-01-15T21:06:01.634Z,15.22
2024-01-15T21:08:30.103Z,15.22
2024-01-15T21:10:57.689Z,15.26
2024-01-15T21:13:25.291Z,15.22
2024-01-15T21:15:54.222Z,15.25
2024-01-15T21:18:21.925Z,15.14
2024-01-15T21:20:49.640Z,15.13
2024-01-15T21:23:17.444Z,15.14
2024-01-15T21:25:45.101Z,15.08
2024-01-15T21:28:12.666Z,15.02
2024-01-15T21:30:40.277Z,15.02
2024-01-15T21:33:10.295Z,15.01
2024-01-15T21:35:38.005Z,15.02
2024-01-15T21:38:05.764Z,15.06
2024-01-15T21:40:33.934Z,15.11
2024-01-15T21:43:01.538Z,15.13
2024-01-15T21:45:29.120Z,15.14
2024-01-15T21:47:56.830Z,15.15
2024-01-15T21:50:25.996Z,15.15
2024-01-15T21:52:53.624Z,15.15
2024-01-15T21:55:21.200Z,15.18
2024-01-15T21:57:48.957Z,15.16
2024-01-15T22:00:17.872Z,15.15
2024-01-15T22:02:46.453Z,15.17
2024-01-15T22:05:14.382Z,15.15
2024-01-15T22:07:44.500Z,15.16
2024-01-15T22:10:12.851Z,15.16
2024-01-15T22:12:40.514Z,15.14
2024-01-15T22:15:09.280Z,15.12
2024-01-15T22:17:37.099Z,15.15
2024-01-15T22:20:05.607Z,15.16
2024-01-15T22:22:34.860Z,15.18
2024-01-15T22:25:03.976Z,15.13
2024-01-15T22:27:31.629Z,15.09
2024-01-15T22:29:59.332Z,15.14
2024-01-15T22:32:30.067Z,15.14
2024-01-15T22:34:59.502Z,15.08
2024-01-15T22:37:27.087Z,15.09
2024-01-15T22:39:54.648Z,15.07
2024-01-15T22:42:23.579Z,15.05
2024-01-15T22:44:51.296Z,15.00
2024-01-15T22:47:19.001Z,14.97
2024-01-15T22:49:46.569Z,15.02
2024-01-15T22:52:15.552Z,14.95
2024-01-15T22:54:44.072Z,14.91
2024-01-15T22:57:12.007Z,14.90
2024-01-15T22:59:41.013Z,14.98
2024-01-15T23:02:08.799Z,15.10
2024-01-15T23:04:36.563Z,15.17
2024-01-15T23:07:05.244Z,15.17
2024-01-15T23:09:33.270Z,15.22
2024-01-15T23:12:00.916Z,15.23
2024-01-15T23:14:28.538Z,15.26
2024-01-15T23:16:57.873Z,15.25
2024-01-15T23:19:25.513Z,15.24
2024-01-15T23:21:53.377Z,15.23
2024-01-15T23:24:20.960Z,15.27
2024-01-15T23:26:48.621Z,15.25
2024-01-15T23:29:16.222Z,15.22
2024-01-15T23:31:43.798Z,15.23
2024-01-15T23:34:12.835Z,15.24
2024-01-15T23:36:43.888Z,15.21
2024-01-15T23:39:11.829Z,15.20
2024-01-15T23:41:39.461Z,15.22
2024-01-15T23:44:07.112Z,15.18
2024-01-15T23:46:34.797Z,15.20
2024-01-15T23:49:03.081Z,15.21
2024-01-15T23:51:32.080Z,15.17
2024-01-15T23:53:59.644Z,15.17
2024-01-15T23:56:27.252Z,15.20
2024-01-15T23:58:54.836Z,15.20
